createdAt,value
2018-10-16T00:01:16.525Z,99.90
2018-10-16T00:06:20.918Z,99.90
2018-10-16T00:11:25.526Z,99.90
2018-10-16T00:16:29.368Z,99.90
2018-10-16T00:21:33.198Z,99.90
2018-10-16T00:26:37.065Z,99.90
2018-10-16T00:31:42.225Z,99.90
2018-10-16T00:36:46.440Z,99.90
2018-10-16T00:41:53.587Z,99.90
2018-10-16T00:46:57.509Z,99.90
2018-10-16T00:52:01.394Z,99.90
2018-10-16T00:57:06.256Z,99.90
2018-10-16T01:02:10.113Z,99.90
2018-10-16T01:07:13.962Z,99.90
2018-10-16T01:12:17.809Z,99.90
2018-10-16T01:17:21.677Z,99.90
2018-10-16T01:22:25.523Z,99.90
2018-10-16T01:27:29.423Z,99.90
2018-10-16T01:32:33.292Z,99.90
2018-10-16T01:37:37.277Z,99.90
2018-10-16T01:42:41.831Z,99.90
2018-10-16T01:47:45.718Z,99.90
2018-10-16T01:52:49.562Z,99.90
2018-10-16T01:57:53.380Z,99.90
2018-10-16T02:02:57.226Z,99.90
2018-10-16T02:08:01.945Z,99.90
2018-10-16T02:13:05.923Z,99.90
2018-10-16T02:18:11.596Z,99.90
2018-10-16T02:23:17.187Z,99.90
2018-10-16T02:28:22.964Z,99.90
2018-10-16T02:33:26.991Z,99.90
2018-10-16T02:38:30.855Z,99.90
2018-10-16T02:43:34.797Z,99.90
2018-10-16T02:48:38.689Z,99.90
2018-10-16T02:53:42.853Z,99.90
2018-10-16T02:58:46.727Z,99.90
2018-10-16T03:03:51.069Z,99.90
2018-10-16T03:08:54.912Z,99.90
2018-10-16T03:13:59.354Z,99.90
2018-10-16T03:19:04.622Z,99.90
2018-10-16T03:24:09.211Z,99.90
2018-10-16T03:29:13.011Z,99.90
2018-10-16T03:34:16.884Z,99.90
2018-10-16T03:39:20.706Z,99.90
2018-10-16T03:44:24.539Z,99.90
2018-10-16T03:49:28.438Z,99.90
2018-10-16T03:54:32.270Z,99.90
2018-10-16T03:59:37.588Z,99.90
2018-10-16T04:04:41.441Z,99.90
2018-10-16T04:09:45.318Z,99.90
2018-10-16T04:14:49.151Z,99.90
2018-10-16T04:19:54.361Z,99.90
2018-10-16T04:24:59.031Z,99.90
2018-10-16T04:30:03.190Z,99.90
2018-10-16T04:35:14.187Z,99.90
2018-10-16T04:40:18.435Z,99.90
2018-10-16T04:45:23.837Z,99.90
2018-10-16T04:50:27.727Z,99.90
2018-10-16T04:55:33.567Z,99.90
2018-10-16T05:00:37.481Z,99.90
2018-10-16T05:05:41.586Z,99.90
2018-10-16T05:10:45.569Z,99.90
2018-10-16T05:15:49.598Z,99.90
2018-10-16T05:20:54.300Z,99.90
2018-10-16T05:25:58.285Z,99.90
2018-10-16T05:31:03.288Z,99.90
2018-10-16T05:36:07.288Z,99.90
2018-10-16T05:41:11.264Z,99.90
2018-10-16T05:46:15.266Z,99.90
2018-10-16T05:51:20.197Z,99.90
2018-10-16T05:56:25.317Z,99.90
2018-10-16T06:01:29.502Z,99.90
2018-10-16T06:06:38.824Z,99.90
2018-10-16T06:11:42.808Z,99.90
2018-10-16T06:16:49.493Z,99.90
2018-10-16T06:21:55.020Z,99.90
2018-10-16T06:26:59.528Z,99.90
2018-10-16T06:32:06.054Z,99.90
2018-10-16T06:37:12.077Z,99.90
2018-10-16T06:42:15.976Z,99.90
2018-10-16T06:47:19.908Z,99.90
2018-10-16T06:52:23.754Z,99.90
2018-10-16T06:57:29.013Z,99.90
2018-10-16T07:02:32.929Z,99.90
2018-10-16T07:07:36.821Z,99.90
2018-10-16T07:12:40.702Z,99.90
2018-10-16T07:17:44.799Z,99.90
2018-10-16T07:22:49.895Z,99.90
2018-10-16T07:27:53.784Z,99.90
2018-10-16T07:32:58.507Z,99.90
2018-10-16T07:38:03.540Z,99.90
2018-10-16T07:43:07.469Z,99.90
2018-10-16T07:48:11.431Z,99.90
2018-10-16T07:53:15.306Z,99.90
2018-10-16T07:58:19.283Z,99.90
2018-10-16T08:03:23.393Z,99.90
2018-10-16T08:08:28.905Z,99.90
2018-10-16T08:13:32.728Z,99.90
2018-10-16T08:18:36.598Z,99.90
2018-10-16T08:23:40.543Z,99.90
2018-10-16T08:28:45.748Z,99.90
2018-10-16T08:33:50.943Z,99.90
2018-10-16T08:39:00.500Z,99.90
2018-10-16T08:44:23.684Z,99.90
2018-10-16T08:49:39.315Z,99.90
2018-10-16T08:54:43.246Z,99.90
2018-10-16T08:59:48.104Z,99.90
2018-10-16T09:04:53.486Z,99.90
2018-10-16T09:09:57.433Z,99.90
2018-10-16T09:15:01.363Z,99.90
2018-10-16T09:20:05.791Z,99.90
2018-10-16T09:25:10.272Z,99.90
2018-10-16T09:30:14.913Z,99.90
2018-10-16T09:35:18.791Z,99.90
2018-10-16T09:40:22.772Z,99.90
2018-10-16T09:45:26.859Z,99.90
2018-10-16T09:50:30.787Z,99.90
2018-10-16T09:55:34.796Z,99.90
2018-10-16T10:00:44.009Z,99.90
2018-10-16T10:05:47.962Z,99.90
2018-10-16T10:10:52.684Z,99.90
2018-10-16T10:15:56.649Z,99.90
2018-10-16T10:21:00.742Z,99.40
2018-10-16T10:26:05.161Z,97.20
2018-10-16T10:31:09.039Z,98.00
2018-10-16T10:36:13.105Z,96.50
2018-10-16T10:41:17.093Z,95.60
2018-10-16T10:46:20.926Z,98.30
2018-10-16T10:51:27.081Z,97.40
2018-10-16T10:56:30.782Z,98.20
2018-10-16T11:01:35.034Z,99.30
2018-10-16T11:06:38.971Z,99.90
2018-10-16T11:11:48.510Z,99.90
2018-10-16T11:16:52.363Z,99.90
2018-10-16T11:21:56.352Z,99.90
2018-10-16T11:27:00.282Z,99.90
2018-10-16T11:32:04.662Z,99.90
2018-10-16T11:37:08.703Z,99.90
2018-10-16T11:42:12.761Z,99.20
2018-10-16T11:47:17.566Z,97.30
2018-10-16T11:52:21.528Z,95.10
2018-10-16T11:57:25.358Z,95.90
2018-10-16T12:02:29.287Z,94.30
2018-10-16T12:07:34.926Z,94.60
2018-10-16T12:12:38.838Z,93.50
2018-10-16T12:17:48.873Z,94.50
2018-10-16T12:23:30.027Z,92.40
2018-10-16T12:28:34.062Z,90.70
2018-10-16T12:33:38.325Z,91.70
2018-10-16T12:38:42.452Z,90.10
2018-10-16T12:43:47.270Z,90.90
2018-10-16T12:48:51.105Z,92.40
2018-10-16T12:53:55.034Z,90.70
2018-10-16T12:58:58.984Z,86.80
2018-10-16T13:04:02.978Z,88.10
2018-10-16T13:09:09.995Z,90.60
2018-10-16T13:14:13.875Z,88.90
2018-10-16T13:19:17.926Z,91.70
2018-10-16T13:24:22.586Z,86.00
2018-10-16T13:29:26.624Z,90.70
2018-10-16T13:34:31.008Z,87.00
2018-10-16T13:39:34.867Z,91.90
2018-10-16T13:44:38.721Z,90.40
2018-10-16T13:49:43.294Z,83.30
2018-10-16T13:54:48.328Z,89.80
2018-10-16T13:59:52.527Z,83.40
2018-10-16T14:04:56.582Z,80.10
2018-10-16T14:10:00.502Z,77.80
2018-10-16T14:15:05.448Z,82.60
2018-10-16T14:20:10.051Z,90.40
2018-10-16T14:25:15.556Z,91.10
2018-10-16T14:30:19.935Z,88.40
2018-10-16T14:35:23.788Z,88.50
2018-10-16T14:40:27.797Z,91.50
2018-10-16T14:45:33.301Z,92.10
2018-10-16T14:50:37.157Z,92.50
2018-10-16T14:55:41.041Z,90.40
2018-10-16T15:00:44.906Z,87.20
2018-10-16T15:05:49.052Z,88.80
2018-10-16T15:10:53.510Z,91.00
2018-10-16T15:15:57.392Z,91.80
2018-10-16T15:21:01.304Z,92.60
2018-10-16T15:26:05.707Z,94.20
2018-10-16T15:31:10.195Z,94.90
2018-10-16T15:36:14.632Z,96.00
2018-10-16T15:41:18.804Z,97.10
2018-10-16T15:46:22.679Z,97.70
2018-10-16T15:51:26.778Z,98.50
2018-10-16T15:56:31.182Z,99.50
2018-10-16T16:01:35.499Z,99.90
2018-10-16T16:06:39.388Z,99.90
2018-10-16T16:11:43.295Z,99.90
2018-10-16T16:16:47.284Z,99.90
2018-10-16T16:21:51.667Z,99.90
2018-10-16T16:26:56.431Z,99.90
2018-10-16T16:32:00.389Z,99.90
2018-10-16T16:37:04.567Z,99.90
2018-10-16T16:42:08.515Z,99.90
2018-10-16T16:47:13.683Z,99.90
2018-10-16T16:52:26.381Z,99.90
2018-10-16T16:57:30.561Z,99.90
2018-10-16T17:02:34.721Z,99.90
2018-10-16T17:07:38.653Z,99.90
2018-10-16T17:12:42.803Z,99.90
2018-10-16T17:17:47.290Z,99.90
2018-10-16T17:22:52.718Z,99.90
2018-10-16T17:27:56.942Z,99.90
2018-10-16T17:33:00.919Z,99.90
2018-10-16T17:38:04.940Z,99.90
2018-10-16T17:43:08.946Z,99.90
2018-10-16T17:48:12.936Z,99.90
2018-10-16T17:53:16.884Z,99.90
2018-10-16T17:58:21.275Z,99.90
2018-10-16T18:03:26.260Z,99.90
2018-10-16T18:08:31.031Z,99.90
2018-10-16T18:13:35.122Z,99.90
2018-10-16T18:18:39.238Z,99.90
2018-10-16T18:23:43.326Z,99.90
2018-10-16T18:28:47.281Z,99.90
2018-10-16T18:33:52.019Z,99.90
2018-10-16T18:38:56.465Z,99.90
2018-10-16T18:44:01.438Z,99.90
2018-10-16T18:49:07.286Z,99.90
2018-10-16T18:54:12.496Z,99.90
2018-10-16T18:59:16.585Z,99.90
2018-10-16T19:04:20.852Z,99.90
2018-10-16T19:09:24.990Z,99.90
2018-10-16T19:14:29.264Z,99.90
2018-10-16T19:19:33.188Z,99.90
2018-10-16T19:24:51.123Z,99.90
2018-10-16T19:29:55.490Z,99.90
2018-10-16T19:35:02.395Z,99.90
2018-10-16T19:40:06.532Z,99.90
2018-10-16T19:45:11.207Z,99.90
2018-10-16T19:50:15.929Z,99.90
2018-10-16T19:55:21.860Z,99.90
2018-10-16T20:00:27.048Z,99.90
2018-10-16T20:05:30.967Z,99.90
2018-10-16T20:10:34.847Z,99.90
2018-10-16T20:15:38.975Z,99.90
2018-10-16T20:20:43.026Z,99.90
2018-10-16T20:25:47.049Z,99.90
2018-10-16T20:30:51.375Z,99.90
2018-10-16T20:35:57.107Z,99.90
2018-10-16T20:41:01.186Z,99.90
2018-10-16T20:46:05.688Z,99.90
2018-10-16T20:51:09.733Z,99.90
2018-10-16T20:56:14.129Z,99.90
2018-10-16T21:01:18.137Z,99.90
2018-10-16T21:06:22.362Z,99.90
2018-10-16T21:11:26.081Z,99.90
2018-10-16T21:16:31.457Z,99.90
2018-10-16T21:21:35.347Z,99.90
2018-10-16T21:26:39.294Z,99.90
2018-10-16T21:31:43.557Z,99.90
2018-10-16T21:36:47.466Z,99.90
2018-10-16T21:41:51.845Z,99.90
2018-10-16T21:46:55.760Z,99.90
2018-10-16T21:51:59.612Z,99.90
2018-10-16T21:57:04.768Z,99.90
2018-10-16T22:02:13.966Z,99.90
2018-10-16T22:07:17.816Z,99.90
2018-10-16T22:12:22.528Z,99.90
2018-10-16T22:17:27.526Z,99.90
2018-10-16T22:22:31.708Z,99.90
2018-10-16T22:27:35.641Z,99.90
2018-10-16T22:32:40.311Z,99.90
2018-10-16T22:37:44.239Z,99.90
2018-10-16T22:42:48.198Z,99.90
2018-10-16T22:47:52.128Z,99.90
2018-10-16T22:52:56.789Z,99.90
2018-10-16T22:58:13.527Z,99.90
2018-10-16T23:03:28.005Z,99.90
2018-10-16T23:08:31.976Z,99.90
2018-10-16T23:13:35.857Z,99.90
2018-10-16T23:18:39.999Z,99.90
2018-10-16T23:23:43.851Z,99.90
2018-10-16T23:28:47.790Z,99.90
2018-10-16T23:33:51.854Z,99.90
2018-10-16T23:38:55.760Z,99.90
2018-10-16T23:43:59.658Z,99.90
2018-10-16T23:49:04.759Z,99.90
2018-10-16T23:54:08.721Z,99.90
2018-10-16T23:59:13.223Z,99.90
